Startpagina
METAR-TAF:

METAR-TAF

Vliegvelden :

Vliegbasis Deelen

Arnhem, Nederland

breedte: 52-04N, lengte: 005-53E, hoogte: 48 m

Actueel weer

Dit bericht is 25 minuten geleden gemaakt, om 05:25 UTC
Wind 3 kt uit het oosten, variërend tussen het noordnoordoosten en het zuiden
Temperatuur 17°C
Vochtigheid 59%
Druk 1019 hPa
Zicht 10 km of meer
Geheel bewolkt op 21000 ft

METAR: EHDL 020525Z AUTO 08003KT 020V180 9999 OVC210 17/09 Q1019 BLU

Tijdstip: 07:50 (05:50 UTC)


TAF: ontbreekt

Waarnemingen en weersverwachtingen van meer dan 4000 vliegvelden (METAR en TAF).

De beschikbare stations zijn de gele en rode punten op de kaart.

Ga met uw muis naar het station om de naam te zien.

Klik dan om waarnemingen en weersverwachtingen te zien.

kaart wijzigen: klik op de groene knoppen met een zwart kruis om in te zoomen, op de groene knop met een streepje om uit te zoomen of op de groene pijlen voor aangrenzende kaarten.


METAR-TAF: